createdAt,value
2018-01-22T00:00:19.592Z,92.40
2018-01-22T00:02:47.816Z,92.50
2018-01-22T00:05:15.565Z,92.40
2018-01-22T00:07:43.018Z,92.40
2018-01-22T00:10:10.425Z,92.50
2018-01-22T00:12:37.864Z,92.50
2018-01-22T00:15:05.403Z,92.50
2018-01-22T00:17:32.853Z,92.50
2018-01-22T00:20:00.628Z,92.50
2018-01-22T00:22:28.070Z,92.50
2018-01-22T00:24:55.488Z,92.50
2018-01-22T00:27:23.809Z,92.50
2018-01-22T00:29:51.236Z,92.50
2018-01-22T00:32:18.678Z,92.60
2018-01-22T00:34:46.905Z,92.60
2018-01-22T00:37:14.352Z,92.60
2018-01-22T00:39:41.803Z,92.60
2018-01-22T00:42:09.572Z,92.60
2018-01-22T00:44:37.032Z,92.60
2018-01-22T00:47:04.464Z,92.60
2018-01-22T00:49:31.908Z,92.60
2018-01-22T00:52:00.100Z,92.70
2018-01-22T00:54:27.600Z,92.70
2018-01-22T00:56:55.141Z,92.70
2018-01-22T00:59:22.596Z,92.70
2018-01-22T01:01:50.024Z,92.70
2018-01-22T01:04:17.711Z,92.80
2018-01-22T01:06:45.167Z,92.80
2018-01-22T01:09:12.628Z,92.80
2018-01-22T01:11:40.087Z,92.80
2018-01-22T01:14:08.307Z,92.80
2018-01-22T01:16:35.740Z,92.80
2018-01-22T01:19:03.180Z,92.90
2018-01-22T01:21:31.493Z,92.90
2018-01-22T01:23:58.906Z,92.90
2018-01-22T01:26:27.131Z,93.00
2018-01-22T01:28:54.605Z,93.30
2018-01-22T01:31:22.052Z,93.00
2018-01-22T01:33:49.820Z,93.00
2018-01-22T01:36:17.264Z,93.00
2018-01-22T01:38:44.724Z,93.00
2018-01-22T01:41:12.183Z,93.10
2018-01-22T01:43:39.635Z,93.10
2018-01-22T01:46:07.072Z,93.10
2018-01-22T01:48:34.868Z,93.10
2018-01-22T01:51:02.295Z,93.10
2018-01-22T01:53:29.795Z,93.10
2018-01-22T01:55:57.336Z,93.10
2018-01-22T01:58:24.788Z,93.10
2018-01-22T02:00:52.225Z,93.20
2018-01-22T02:03:19.912Z,93.20
2018-01-22T02:05:47.380Z,93.20
2018-01-22T02:08:14.828Z,93.20
2018-01-22T02:10:42.275Z,93.20
2018-01-22T02:13:09.700Z,93.20
2018-01-22T02:15:37.920Z,93.20
2018-01-22T02:18:05.480Z,93.20
2018-01-22T02:20:32.936Z,93.20
2018-01-22T02:23:00.381Z,93.20
2018-01-22T02:25:27.844Z,93.20
2018-01-22T02:27:55.303Z,93.20
2018-01-22T02:30:22.736Z,93.30
2018-01-22T02:32:50.520Z,93.30
2018-01-22T02:35:17.988Z,93.30
2018-01-22T02:37:45.523Z,93.30
2018-01-22T02:40:12.975Z,93.30
2018-01-22T02:42:40.472Z,93.30
2018-01-22T02:45:07.999Z,93.30
2018-01-22T02:47:35.762Z,93.30
2018-01-22T02:50:03.192Z,93.30
2018-01-22T02:52:30.626Z,93.30
2018-01-22T02:54:58.068Z,93.30
2018-01-22T02:57:25.597Z,93.30
2018-01-22T02:59:53.048Z,93.40
2018-01-22T03:02:20.515Z,93.40
2018-01-22T03:04:47.968Z,93.40
2018-01-22T03:07:15.423Z,93.40
2018-01-22T03:09:43.188Z,93.40
2018-01-22T03:12:10.619Z,93.40
2018-01-22T03:14:38.048Z,93.40
2018-01-22T03:17:06.256Z,93.50
2018-01-22T03:19:33.676Z,93.40
2018-01-22T03:22:01.904Z,93.30
2018-01-22T03:24:29.671Z,93.50
2018-01-22T03:26:57.764Z,93.50
2018-01-22T03:29:25.189Z,93.50
2018-01-22T03:31:52.656Z,93.50
2018-01-22T03:34:20.084Z,93.60
2018-01-22T03:36:47.564Z,93.60
2018-01-22T03:39:15.017Z,93.60
2018-01-22T03:41:42.447Z,93.90
2018-01-22T03:44:10.657Z,93.60
2018-01-22T03:46:38.327Z,93.60
2018-01-22T03:49:05.783Z,93.60
2018-01-22T03:51:33.211Z,93.60
2018-01-22T03:54:00.692Z,93.60
2018-01-22T03:56:28.140Z,93.60
2018-01-22T03:58:55.556Z,93.60
2018-01-22T04:01:24.008Z,93.70
2018-01-22T04:03:51.544Z,93.60
2018-01-22T04:06:18.980Z,93.70
2018-01-22T04:08:46.431Z,93.70
2018-01-22T04:11:13.915Z,93.70
2018-01-22T04:13:41.371Z,93.70
2018-01-22T04:16:09.045Z,93.70
2018-01-22T04:18:36.471Z,93.70
2018-01-22T04:21:03.952Z,93.80
2018-01-22T04:23:31.387Z,93.80
2018-01-22T04:25:58.870Z,93.80
2018-01-22T04:28:26.329Z,93.80
2018-01-22T04:30:54.179Z,93.80
2018-01-22T04:33:21.616Z,93.80
2018-01-22T04:35:49.045Z,93.80
2018-01-22T04:38:17.251Z,93.90
2018-01-22T04:40:44.732Z,93.80
2018-01-22T04:43:12.206Z,93.90
2018-01-22T04:45:39.956Z,93.90
2018-01-22T04:48:07.402Z,93.90
2018-01-22T04:50:34.903Z,94.20
2018-01-22T04:53:02.345Z,93.90
2018-01-22T04:55:29.788Z,93.90
2018-01-22T04:57:57.215Z,93.90
2018-01-22T05:00:24.704Z,94.00
2018-01-22T05:02:52.132Z,94.00
2018-01-22T05:05:19.580Z,94.00
2018-01-22T05:07:47.063Z,94.00
2018-01-22T05:10:14.502Z,94.00
2018-01-22T05:12:41.932Z,94.00
2018-01-22T05:15:10.152Z,94.10
2018-01-22T05:17:37.611Z,94.00
2018-01-22T05:20:05.070Z,94.10
2018-01-22T05:22:33.292Z,94.10
2018-01-22T05:25:00.769Z,94.10
2018-01-22T05:27:28.309Z,94.10
2018-01-22T05:29:55.756Z,94.10
2018-01-22T05:32:23.224Z,94.20
2018-01-22T05:34:50.690Z,94.20
2018-01-22T05:37:18.132Z,94.20
2018-01-22T05:39:45.603Z,94.30
2018-01-22T05:42:13.053Z,94.20
2018-01-22T05:44:40.772Z,94.30
2018-01-22T05:47:08.981Z,94.30
2018-01-22T05:49:36.412Z,94.30
2018-01-22T05:52:03.860Z,94.40
2018-01-22T05:54:31.300Z,94.70
2018-01-22T05:56:58.739Z,94.40
2018-01-22T05:59:26.183Z,94.40
2018-01-22T06:01:54.556Z,94.40
2018-01-22T06:04:21.988Z,94.50
2018-01-22T06:06:49.498Z,94.50
2018-01-22T06:09:17.043Z,94.50
2018-01-22T06:11:44.474Z,94.60
2018-01-22T06:14:11.920Z,94.60
2018-01-22T06:16:40.118Z,94.60
2018-01-22T06:19:07.540Z,94.60
2018-01-22T06:21:35.988Z,94.70
2018-01-22T06:24:03.435Z,94.70
2018-01-22T06:26:30.876Z,94.70
2018-01-22T06:28:58.328Z,94.80
2018-01-22T06:31:25.752Z,94.80
2018-01-22T06:33:53.958Z,94.90
2018-01-22T06:36:21.411Z,94.90
2018-01-22T06:38:48.876Z,94.90
2018-01-22T06:41:16.333Z,94.90
2018-01-22T06:43:43.792Z,95.00
2018-01-22T06:46:11.224Z,95.00
2018-01-22T06:48:38.707Z,95.00
2018-01-22T06:51:06.156Z,95.10
2018-01-22T06:53:33.629Z,95.10
2018-01-22T06:56:01.080Z,95.10
2018-01-22T06:58:28.527Z,95.10
2018-01-22T07:00:55.956Z,95.10
2018-01-22T07:03:24.163Z,95.20
2018-01-22T07:05:51.627Z,95.20
2018-01-22T07:08:19.089Z,95.20
2018-01-22T07:10:46.555Z,95.20
2018-01-22T07:13:14.008Z,95.20
2018-01-22T07:15:41.454Z,95.30
2018-01-22T07:18:08.884Z,95.30
2018-01-22T07:20:36.324Z,95.30
2018-01-22T07:23:04.549Z,95.30
2018-01-22T07:25:31.964Z,95.30
2018-01-22T07:27:59.408Z,95.30
2018-01-22T07:30:27.634Z,95.40
2018-01-22T07:32:55.090Z,95.30
2018-01-22T07:35:22.548Z,95.70
2018-01-22T07:37:49.976Z,95.40
2018-01-22T07:40:17.404Z,95.40
2018-01-22T07:42:45.628Z,95.70
2018-01-22T07:45:13.048Z,95.30
2018-01-22T07:47:41.264Z,95.40
2018-01-22T07:50:08.711Z,95.30
2018-01-22T07:52:36.132Z,95.30
2018-01-22T07:55:04.352Z,95.30
2018-01-22T07:57:31.903Z,95.30
2018-01-22T07:59:59.308Z,95.30
2018-01-22T08:02:26.830Z,95.30
2018-01-22T08:04:54.326Z,95.60
2018-01-22T08:07:21.701Z,95.30
2018-01-22T08:09:49.901Z,95.20
2018-01-22T08:12:17.672Z,95.20
2018-01-22T08:14:45.100Z,95.20
2018-01-22T08:17:12.592Z,95.20
2018-01-22T08:19:40.041Z,95.20
2018-01-22T08:22:07.474Z,95.20
2018-01-22T08:24:35.671Z,95.20
2018-01-22T08:27:03.336Z,95.10
2018-01-22T08:29:30.764Z,95.10
2018-01-22T08:31:58.966Z,95.10
2018-01-22T08:34:26.424Z,95.00
2018-01-22T08:36:53.855Z,95.10
2018-01-22T08:39:21.285Z,95.00
2018-01-22T08:41:49.525Z,94.90
2018-01-22T08:44:16.948Z,95.00
2018-01-22T08:46:44.432Z,95.00
2018-01-22T08:49:11.880Z,94.90
2018-01-22T08:51:39.348Z,94.90
2018-01-22T08:54:06.787Z,94.90
2018-01-22T08:56:34.287Z,94.90
2018-01-22T08:59:01.815Z,94.90
2018-01-22T09:01:29.227Z,94.80
2018-01-22T09:03:57.432Z,94.60
2018-01-22T09:06:24.912Z,94.80
2018-01-22T09:08:52.332Z,94.80
2018-01-22T09:11:19.821Z,94.80
2018-01-22T09:13:47.271Z,95.10
2018-01-22T09:16:14.700Z,94.70
2018-01-22T09:18:42.903Z,94.70
2018-01-22T09:21:10.330Z,94.70
2018-01-22T09:23:38.545Z,94.70
2018-01-22T09:26:06.001Z,95.00
2018-01-22T09:28:33.456Z,94.70
2018-01-22T09:31:00.916Z,94.60
2018-01-22T09:33:28.357Z,94.50
2018-01-22T09:35:55.836Z,94.50
2018-01-22T09:38:23.260Z,94.50
2018-01-22T09:40:50.761Z,94.50
2018-01-22T09:43:18.179Z,94.40
2018-01-22T09:45:45.603Z,94.40
2018-01-22T09:48:14.673Z,94.30
2018-01-22T09:50:42.208Z,94.30
2018-01-22T09:53:09.648Z,94.30
2018-01-22T09:55:37.132Z,94.30
2018-01-22T09:58:04.568Z,94.20
2018-01-22T10:00:32.040Z,94.20
2018-01-22T10:02:59.496Z,94.20
2018-01-22T10:05:26.955Z,94.10
2018-01-22T10:07:54.416Z,94.10
2018-01-22T10:10:21.859Z,94.10
2018-01-22T10:12:49.280Z,94.10
2018-01-22T10:15:17.500Z,94.10
2018-01-22T10:17:44.947Z,94.10
2018-01-22T10:20:12.408Z,94.10
2018-01-22T10:22:39.832Z,94.10
2018-01-22T10:25:08.038Z,94.10
2018-01-22T10:27:35.456Z,94.10
2018-01-22T10:30:03.672Z,94.10
2018-01-22T10:32:31.112Z,94.10
2018-01-22T10:34:58.588Z,94.00
2018-01-22T10:37:26.046Z,94.00
2018-01-22T10:39:53.476Z,94.00
2018-01-22T10:42:20.900Z,94.00
2018-01-22T10:44:48.337Z,93.90
2018-01-22T10:47:15.884Z,93.90
2018-01-22T10:49:43.335Z,93.90
2018-01-22T10:52:10.736Z,94.20
2018-01-22T10:54:38.955Z,93.90
2018-01-22T10:57:06.368Z,93.90
2018-01-22T10:59:34.616Z,93.80
2018-01-22T11:02:02.163Z,93.80
2018-01-22T11:04:29.604Z,93.70
2018-01-22T11:06:57.068Z,93.70
2018-01-22T11:09:24.753Z,93.70
2018-01-22T11:11:52.188Z,93.60
2018-01-22T11:14:19.612Z,93.60
2018-01-22T11:16:47.048Z,93.50
2018-01-22T11:19:15.244Z,93.60
2018-01-22T11:21:42.668Z,93.50
2018-01-22T11:24:10.908Z,93.60
2018-01-22T11:26:38.445Z,93.60
2018-01-22T11:29:05.872Z,93.50
2018-01-22T11:31:34.075Z,93.60
2018-01-22T11:34:01.542Z,93.60
2018-01-22T11:36:28.962Z,93.50
2018-01-22T11:38:57.184Z,93.40
2018-01-22T11:41:24.617Z,93.40
2018-01-22T11:43:52.040Z,93.30
2018-01-22T11:46:19.477Z,93.20
2018-01-22T11:48:47.044Z,93.20
2018-01-22T11:51:15.976Z,93.10
2018-01-22T11:53:43.463Z,93.10
2018-01-22T11:56:10.916Z,93.20
2018-01-22T11:58:38.341Z,92.90
2018-01-22T12:01:06.554Z,92.70
2018-01-22T12:03:33.988Z,92.70
2018-01-22T12:06:01.470Z,92.60
2018-01-22T12:08:28.922Z,92.60
2018-01-22T12:10:56.345Z,92.50
2018-01-22T12:13:23.772Z,92.50
2018-01-22T12:15:51.215Z,92.50
2018-01-22T12:18:18.639Z,92.40
2018-01-22T12:20:46.108Z,92.20
2018-01-22T12:23:13.664Z,92.20
2018-01-22T12:25:41.097Z,92.20
2018-01-22T12:28:08.520Z,92.10
2018-01-22T12:30:36.040Z,92.10
2018-01-22T12:33:03.492Z,92.10
2018-01-22T12:35:30.920Z,92.00
2018-01-22T12:37:58.608Z,92.00
2018-01-22T12:40:26.072Z,92.00
2018-01-22T12:42:53.500Z,92.00
2018-01-22T12:45:20.952Z,91.90
2018-01-22T12:47:48.385Z,91.90
2018-01-22T12:50:15.904Z,91.90
2018-01-22T12:52:43.341Z,91.80
2018-01-22T12:55:10.818Z,91.70
2018-01-22T12:57:38.244Z,91.70
2018-01-22T13:00:05.679Z,91.90
2018-01-22T13:02:33.903Z,91.50
2018-01-22T13:05:01.360Z,91.50
2018-01-22T13:07:28.801Z,91.40
2018-01-22T13:09:56.229Z,91.40
2018-01-22T13:12:24.420Z,91.40
2018-01-22T13:14:52.114Z,91.40
2018-01-22T13:17:19.572Z,91.40
2018-01-22T13:19:46.995Z,91.40
2018-01-22T13:22:14.509Z,91.30
2018-01-22T13:24:41.930Z,91.30
2018-01-22T13:27:09.354Z,91.20
2018-01-22T13:29:37.673Z,91.20
2018-01-22T13:32:05.123Z,91.10
2018-01-22T13:34:32.585Z,91.00
2018-01-22T13:37:00.012Z,91.00
2018-01-22T13:39:27.436Z,91.00
2018-01-22T13:41:54.896Z,91.00
2018-01-22T13:44:23.942Z,90.90
2018-01-22T13:46:51.351Z,90.80
2018-01-22T13:49:18.867Z,90.80
2018-01-22T13:51:46.842Z,90.80
2018-01-22T13:54:14.280Z,90.70
2018-01-22T13:56:41.686Z,90.70
2018-01-22T13:59:09.180Z,90.70
2018-01-22T14:01:36.688Z,90.70
2018-01-22T14:04:04.220Z,90.70
2018-01-22T14:06:31.676Z,90.70
2018-01-22T14:08:59.136Z,90.70
2018-01-22T14:11:26.556Z,90.60
2018-01-22T14:13:54.798Z,90.50
2018-01-22T14:16:22.224Z,90.50
2018-01-22T14:18:49.651Z,90.50
2018-01-22T14:21:17.342Z,90.60
2018-01-22T14:23:44.769Z,90.60
2018-01-22T14:26:12.204Z,90.60
2018-01-22T14:28:39.640Z,90.50
2018-01-22T14:31:07.064Z,90.40
2018-01-22T14:33:34.488Z,90.40
2018-01-22T14:36:02.701Z,90.50
2018-01-22T14:38:30.151Z,90.50
2018-01-22T14:40:57.587Z,90.50
2018-01-22T14:43:25.023Z,90.50
2018-01-22T14:45:53.230Z,90.50
2018-01-22T14:48:20.713Z,90.50
2018-01-22T14:50:48.380Z,90.50
2018-01-22T14:53:15.820Z,90.50
2018-01-22T14:55:43.252Z,90.50
2018-01-22T14:58:10.684Z,90.50
2018-01-22T15:00:38.909Z,90.50
2018-01-22T15:03:06.333Z,90.50
2018-01-22T15:05:33.824Z,90.60
2018-01-22T15:08:01.276Z,90.50
2018-01-22T15:10:28.732Z,90.50
2018-01-22T15:12:56.246Z,90.60
2018-01-22T15:15:23.625Z,90.60
2018-01-22T15:17:51.060Z,90.60
2018-01-22T15:20:19.387Z,90.70
2018-01-22T15:22:46.700Z,90.70
2018-01-22T15:25:14.958Z,90.70
2018-01-22T15:27:42.404Z,90.70
2018-01-22T15:30:10.596Z,90.70
2018-01-22T15:32:38.813Z,90.70
2018-01-22T15:35:06.227Z,90.70
2018-01-22T15:37:34.448Z,90.80
2018-01-22T15:40:01.901Z,90.80
2018-01-22T15:42:29.364Z,90.80
2018-01-22T15:44:56.820Z,90.80
2018-01-22T15:47:24.244Z,90.90
2018-01-22T15:49:52.448Z,90.80
2018-01-22T15:52:19.903Z,90.80
2018-01-22T15:54:47.375Z,90.80
2018-01-22T15:57:14.840Z,90.90
2018-01-22T15:59:42.274Z,90.90
2018-01-22T16:02:09.738Z,90.90
2018-01-22T16:04:37.204Z,91.00
2018-01-22T16:07:04.627Z,91.00
2018-01-22T16:09:32.060Z,91.00
2018-01-22T16:12:00.261Z,91.40
2018-01-22T16:14:27.740Z,91.10
2018-01-22T16:16:55.196Z,91.10
2018-01-22T16:19:22.872Z,91.10
2018-01-22T16:21:50.305Z,91.10
2018-01-22T16:24:17.767Z,91.10
2018-01-22T16:26:45.442Z,91.10
2018-01-22T16:29:12.857Z,91.10
2018-01-22T16:31:41.106Z,91.10
2018-01-22T16:34:08.504Z,91.10
2018-01-22T16:36:35.988Z,91.10
2018-01-22T16:39:03.416Z,91.10
2018-01-22T16:41:31.090Z,91.10
2018-01-22T16:43:59.256Z,91.20
2018-01-22T16:46:26.692Z,91.20
2018-01-22T16:48:54.911Z,91.20
2018-01-22T16:51:22.344Z,91.20
2018-01-22T16:53:49.842Z,91.20
2018-01-22T16:56:17.269Z,91.20
2018-01-22T16:58:44.743Z,91.20
2018-01-22T17:01:12.168Z,91.20
2018-01-22T17:03:39.605Z,91.30
2018-01-22T17:06:07.820Z,91.30
2018-01-22T17:08:35.257Z,91.30
2018-01-22T17:11:02.691Z,91.30
2018-01-22T17:13:30.888Z,91.30
2018-01-22T17:15:58.319Z,91.30
2018-01-22T17:18:26.522Z,91.50
2018-01-22T17:20:54.000Z,91.30
2018-01-22T17:23:21.428Z,91.30
2018-01-22T17:25:48.924Z,91.30
2018-01-22T17:28:16.368Z,91.30
2018-01-22T17:30:43.830Z,91.30
2018-01-22T17:33:11.277Z,91.30
2018-01-22T17:35:38.708Z,91.30
2018-01-22T17:38:06.901Z,91.40
2018-01-22T17:40:34.375Z,91.40
2018-01-22T17:43:01.804Z,91.40
2018-01-22T17:45:29.289Z,91.30
2018-01-22T17:47:56.728Z,91.30
2018-01-22T17:50:24.148Z,91.30
2018-01-22T17:52:52.372Z,91.40
2018-01-22T17:55:19.812Z,91.40
2018-01-22T17:57:47.299Z,91.40
2018-01-22T18:00:14.734Z,91.40
2018-01-22T18:02:42.170Z,91.40
2018-01-22T18:05:10.356Z,91.40
2018-01-22T18:07:37.780Z,91.40
2018-01-22T18:10:05.226Z,91.40
2018-01-22T18:12:32.774Z,91.40
2018-01-22T18:15:00.198Z,91.40
2018-01-22T18:17:27.638Z,91.40
2018-01-22T18:19:55.124Z,91.40
2018-01-22T18:22:22.598Z,91.40
2018-01-22T18:24:50.339Z,91.40
2018-01-22T18:27:17.766Z,91.40
2018-01-22T18:29:45.960Z,91.40
2018-01-22T18:32:13.435Z,91.50
2018-01-22T18:34:40.853Z,91.50
2018-01-22T18:37:09.044Z,91.50
2018-01-22T18:39:36.487Z,91.50
2018-01-22T18:42:03.920Z,91.50
2018-01-22T18:44:32.117Z,91.50
2018-01-22T18:47:00.628Z,91.50
2018-01-22T18:49:28.059Z,91.50
2018-01-22T18:51:56.257Z,91.50
2018-01-22T18:54:23.718Z,91.50
2018-01-22T18:56:51.153Z,91.50
2018-01-22T18:59:18.576Z,91.60
2018-01-22T19:01:46.808Z,91.50
2018-01-22T19:04:14.240Z,91.50
2018-01-22T19:06:41.732Z,91.50
2018-01-22T19:09:09.184Z,91.50
2018-01-22T19:11:36.605Z,91.60
2018-01-22T19:14:04.812Z,91.60
2018-01-22T19:16:32.243Z,91.60
2018-01-22T19:18:59.724Z,91.60
2018-01-22T19:21:27.188Z,91.60
2018-01-22T19:23:54.946Z,91.60
2018-01-22T19:26:22.373Z,91.60
2018-01-22T19:28:49.888Z,91.60
2018-01-22T19:31:17.626Z,91.60
2018-01-22T19:33:45.083Z,91.60
2018-01-22T19:36:12.539Z,91.60
2018-01-22T19:38:39.972Z,91.60
2018-01-22T19:41:07.493Z,91.60
2018-01-22T19:43:35.688Z,91.60
2018-01-22T19:46:03.896Z,91.90
2018-01-22T19:48:31.320Z,91.60
2018-01-22T19:50:59.511Z,91.70
2018-01-22T19:53:27.311Z,91.70
2018-01-22T19:55:54.736Z,91.60
2018-01-22T19:58:22.213Z,91.60
2018-01-22T20:00:49.668Z,91.60
2018-01-22T20:03:17.127Z,91.60
2018-01-22T20:05:44.557Z,91.60
2018-01-22T20:08:12.250Z,91.60
2018-01-22T20:10:39.672Z,91.60
2018-01-22T20:13:07.096Z,91.60
2018-01-22T20:15:35.304Z,91.50
2018-01-22T20:18:02.797Z,91.60
2018-01-22T20:20:30.228Z,91.50
2018-01-22T20:22:57.745Z,91.50
2018-01-22T20:25:25.188Z,91.60
2018-01-22T20:27:52.628Z,91.60
2018-01-22T20:30:20.056Z,91.60
2018-01-22T20:32:48.260Z,91.60
2018-01-22T20:35:15.689Z,91.60
2018-01-22T20:37:44.009Z,91.90
2018-01-22T20:40:11.438Z,91.50
2018-01-22T20:42:38.908Z,91.50
2018-01-22T20:45:06.372Z,91.50
2018-01-22T20:47:33.800Z,91.50
2018-01-22T20:50:01.228Z,91.50
2018-01-22T20:52:29.485Z,91.60
2018-01-22T20:54:56.909Z,91.50
2018-01-22T20:57:24.378Z,91.50
2018-01-22T20:59:51.928Z,91.50
2018-01-22T21:02:19.360Z,91.50
2018-01-22T21:04:46.799Z,91.50
2018-01-22T21:07:15.068Z,91.40
2018-01-22T21:09:43.292Z,91.50
2018-01-22T21:12:10.752Z,91.40
2018-01-22T21:14:38.196Z,91.40
2018-01-22T21:17:05.632Z,91.40
2018-01-22T21:19:33.839Z,91.40
2018-01-22T21:22:01.297Z,91.40
2018-01-22T21:24:28.743Z,91.50
2018-01-22T21:26:56.164Z,91.50
2018-01-22T21:29:24.696Z,91.50
2018-01-22T21:31:52.152Z,91.50
2018-01-22T21:34:19.582Z,91.50
2018-01-22T21:36:47.292Z,91.50
2018-01-22T21:39:14.720Z,91.50
2018-01-22T21:41:42.184Z,91.50
2018-01-22T21:44:09.643Z,91.50
2018-01-22T21:46:37.092Z,91.50
2018-01-22T21:49:04.556Z,91.50
2018-01-22T21:51:32.008Z,91.50
2018-01-22T21:53:59.420Z,91.50
2018-01-22T21:56:27.676Z,91.50
2018-01-22T21:58:55.408Z,91.50
2018-01-22T22:01:22.863Z,91.50
2018-01-22T22:03:50.324Z,91.50
2018-01-22T22:06:17.776Z,91.50
2018-01-22T22:08:45.240Z,91.50
2018-01-22T22:11:12.709Z,91.50
2018-01-22T22:13:40.254Z,91.60
2018-01-22T22:16:07.692Z,91.60
2018-01-22T22:18:35.265Z,91.60
2018-01-22T22:21:02.689Z,91.60
2018-01-22T22:23:30.888Z,91.60
2018-01-22T22:25:58.312Z,91.60
2018-01-22T22:28:26.524Z,91.60
2018-01-22T22:30:53.964Z,91.60
2018-01-22T22:33:21.448Z,91.50
2018-01-22T22:35:48.896Z,91.60
2018-01-22T22:38:16.320Z,91.60
2018-01-22T22:40:44.532Z,91.50
2018-01-22T22:43:12.397Z,91.50
2018-01-22T22:45:39.836Z,91.50
2018-01-22T22:48:07.256Z,91.50
2018-01-22T22:50:34.777Z,91.60
2018-01-22T22:53:02.233Z,91.60
2018-01-22T22:55:29.664Z,91.60
2018-01-22T22:57:57.104Z,91.60
2018-01-22T23:00:25.388Z,91.60
2018-01-22T23:02:52.881Z,91.60
2018-01-22T23:05:20.346Z,91.50
2018-01-22T23:07:47.792Z,91.50
2018-01-22T23:10:15.228Z,91.40
2018-01-22T23:12:42.672Z,91.40
2018-01-22T23:15:10.883Z,91.40
2018-01-22T23:17:38.293Z,91.40
2018-01-22T23:20:06.726Z,91.50
2018-01-22T23:22:34.185Z,91.50
2018-01-22T23:25:01.607Z,91.50
2018-01-22T23:27:29.088Z,91.50
2018-01-22T23:29:56.511Z,91.40
2018-01-22T23:32:24.700Z,91.40
2018-01-22T23:34:52.151Z,91.40
2018-01-22T23:37:20.358Z,91.40
2018-01-22T23:39:47.760Z,91.40
2018-01-22T23:42:15.964Z,91.40
2018-01-22T23:44:43.384Z,91.40
2018-01-22T23:47:11.585Z,91.40
2018-01-22T23:49:39.064Z,91.30
2018-01-22T23:52:06.519Z,91.40
2018-01-22T23:54:33.991Z,91.40
2018-01-22T23:57:01.432Z,91.30
2018-01-22T23:59:28.852Z,91.30
